sensor_id;sensor_type;location;lat;lon;timestamp;pressure;altitude;pressure_sealevel;temperature;humidity
46876;BME280;32866;50.160;14.768;2023-03-30T00:02:04;99287.72;;;4.52;100.00
46876;BME280;32866;50.160;14.768;2023-03-30T00:04:30;99276.91;;;4.49;100.00
46876;BME280;32866;50.160;14.768;2023-03-30T00:06:58;99283.94;;;4.39;100.00
46876;BME280;32866;50.160;14.768;2023-03-30T00:09:24;99281.06;;;4.60;100.00
46876;BME280;32866;50.160;14.768;2023-03-30T00:11:56;99285.44;;;4.47;100.00
46876;BME280;32866;50.160;14.768;2023-03-30T00:14:26;99280.72;;;4.55;100.00
46876;BME280;32866;50.160;14.768;2023-03-30T00:16:55;99278.31;;;4.64;100.00
46876;BME280;32866;50.160;14.768;2023-03-30T00:19:20;99280.78;;;4.48;100.00
46876;BME280;32866;50.160;14.768;2023-03-30T00:21:46;99280.78;;;4.48;100.00
46876;BME280;32866;50.160;14.768;2023-03-30T00:24:11;99279.06;;;4.72;100.00
46876;BME280;32866;50.160;14.768;2023-03-30T00:26:36;99278.31;;;4.64;100.00
46876;BME280;32866;50.160;14.768;2023-03-30T00:29:02;99271.84;;;4.54;100.00
46876;BME280;32866;50.160;14.768;2023-03-30T00:31:27;99279.31;;;4.88;100.00
46876;BME280;32866;50.160;14.768;2023-03-30T00:33:52;99276.72;;;4.70;100.00
46876;BME280;32866;50.160;14.768;2023-03-30T00:36:17;99278.31;;;4.68;100.00
46876;BME280;32866;50.160;14.768;2023-03-30T00:38:43;99272.78;;;4.78;100.00
46876;BME280;32866;50.160;14.768;2023-03-30T00:41:09;99284.69;;;4.92;100.00
46876;BME280;32866;50.160;14.768;2023-03-30T00:43:34;99280.47;;;4.87;100.00
46876;BME280;32866;50.160;14.768;2023-03-30T00:46:18;99273.22;;;4.73;100.00
46876;BME280;32866;50.160;14.768;2023-03-30T00:48:43;99265.88;;;4.70;100.00
46876;BME280;32866;50.160;14.768;2023-03-30T00:51:09;99260.44;;;4.70;100.00
46876;BME280;32866;50.160;14.768;2023-03-30T00:56:01;99265.03;;;4.77;100.00
46876;BME280;32866;50.160;14.768;2023-03-30T00:58:27;99273.41;;;4.97;100.00
46876;BME280;32866;50.160;14.768;2023-03-30T01:00:52;99280.41;;;4.94;100.00
46876;BME280;32866;50.160;14.768;2023-03-30T01:05:43;99290.34;;;4.67;100.00
46876;BME280;32866;50.160;14.768;2023-03-30T01:08:10;99275.56;;;4.71;100.00
46876;BME280;32866;50.160;14.768;2023-03-30T01:10:37;99273.59;;;4.75;100.00
46876;BME280;32866;50.160;14.768;2023-03-30T01:13:03;99270.97;;;4.64;100.00
46876;BME280;32866;50.160;14.768;2023-03-30T01:15:30;99272.84;;;4.71;100.00
46876;BME280;32866;50.160;14.768;2023-03-30T01:18:18;99272.91;;;4.64;100.00
46876;BME280;32866;50.160;14.768;2023-03-30T01:26:41;99272.19;;;4.56;100.00
46876;BME280;32866;50.160;14.768;2023-03-30T01:29:04;99265.19;;;4.59;100.00
46876;BME280;32866;50.160;14.768;2023-03-30T01:36:59;99261.34;;;4.56;100.00
46876;BME280;32866;50.160;14.768;2023-03-30T01:42:18;99251.25;;;4.57;100.00
46876;BME280;32866;50.160;14.768;2023-03-30T01:44:50;99258.28;;;4.47;100.00
46876;BME280;32866;50.160;14.768;2023-03-30T01:52:21;99197.66;;;4.68;100.00
46876;BME280;32866;50.160;14.768;2023-03-30T01:55:02;99200.84;;;4.56;100.00
46876;BME280;32866;50.160;14.768;2023-03-30T01:57:31;99205.50;;;4.55;100.00
46876;BME280;32866;50.160;14.768;2023-03-30T01:59:59;99210.91;;;4.59;100.00
46876;BME280;32866;50.160;14.768;2023-03-30T02:02:27;99204.00;;;4.51;100.00
46876;BME280;32866;50.160;14.768;2023-03-30T02:04:53;99200.53;;;4.46;100.00
46876;BME280;32866;50.160;14.768;2023-03-30T02:07:22;99192.78;;;4.49;100.00
46876;BME280;32866;50.160;14.768;2023-03-30T02:09:49;99187.72;;;4.51;100.00
46876;BME280;32866;50.160;14.768;2023-03-30T02:12:16;99206.69;;;4.51;100.00
46876;BME280;32866;50.160;14.768;2023-03-30T02:14:43;99215.72;;;4.40;100.00
46876;BME280;32866;50.160;14.768;2023-03-30T02:17:16;99204.84;;;4.40;100.00
46876;BME280;32866;50.160;14.768;2023-03-30T02:19:42;99200.19;;;4.44;100.00
46876;BME280;32866;50.160;14.768;2023-03-30T02:22:10;99190.06;;;4.49;100.00
46876;BME280;32866;50.160;14.768;2023-03-30T02:24:35;99183.50;;;4.46;100.00
46876;BME280;32866;50.160;14.768;2023-03-30T02:27:00;99181.63;;;4.39;100.00
46876;BME280;32866;50.160;14.768;2023-03-30T02:29:26;99180.06;;;4.38;100.00
46876;BME280;32866;50.160;14.768;2023-03-30T02:31:53;99183.19;;;4.37;100.00
46876;BME280;32866;50.160;14.768;2023-03-30T02:34:28;99176.97;;;4.40;100.00
46876;BME280;32866;50.160;14.768;2023-03-30T02:42:21;99152.56;;;4.36;100.00
46876;BME280;32866;50.160;14.768;2023-03-30T02:54:49;99096.13;;;4.20;100.00
46876;BME280;32866;50.160;14.768;2023-03-30T02:57:52;99095.00;;;4.18;100.00
46876;BME280;32866;50.160;14.768;2023-03-30T03:00:10;99078.28;;;4.23;100.00
46876;BME280;32866;50.160;14.768;2023-03-30T03:02:42;99075.22;;;4.21;100.00
46876;BME280;32866;50.160;14.768;2023-03-30T03:05:09;99078.63;;;4.28;100.00
46876;BME280;32866;50.160;14.768;2023-03-30T03:07:36;99074.63;;;4.40;100.00
46876;BME280;32866;50.160;14.768;2023-03-30T03:10:02;99067.94;;;4.49;100.00
46876;BME280;32866;50.160;14.768;2023-03-30T03:12:28;99062.81;;;4.58;100.00
46876;BME280;32866;50.160;14.768;2023-03-30T03:14:53;99052.28;;;4.63;100.00
46876;BME280;32866;50.160;14.768;2023-03-30T03:17:18;99060.09;;;4.58;100.00
46876;BME280;32866;50.160;14.768;2023-03-30T03:19:49;99048.06;;;4.59;100.00
46876;BME280;32866;50.160;14.768;2023-03-30T03:22:15;99060.59;;;4.49;100.00
46876;BME280;32866;50.160;14.768;2023-03-30T03:24:40;99045.47;;;4.48;100.00
46876;BME280;32866;50.160;14.768;2023-03-30T03:27:05;99049.66;;;4.56;100.00
46876;BME280;32866;50.160;14.768;2023-03-30T03:29:31;99052.09;;;4.43;100.00
46876;BME280;32866;50.160;14.768;2023-03-30T03:31:56;99068.69;;;4.53;100.00
46876;BME280;32866;50.160;14.768;2023-03-30T03:34:21;99076.09;;;4.49;100.00
46876;BME280;32866;50.160;14.768;2023-03-30T03:36:50;99078.53;;;4.39;100.00
46876;BME280;32866;50.160;14.768;2023-03-30T03:39:17;99084.34;;;4.38;100.00
46876;BME280;32866;50.160;14.768;2023-03-30T03:41:42;99078.91;;;4.38;100.00
46876;BME280;32866;50.160;14.768;2023-03-30T03:44:07;99073.53;;;4.34;100.00
46876;BME280;32866;50.160;14.768;2023-03-30T03:46:33;99061.50;;;4.35;100.00
46876;BME280;32866;50.160;14.768;2023-03-30T03:48:58;99058.06;;;4.31;100.00
46876;BME280;32866;50.160;14.768;2023-03-30T03:51:23;99056.44;;;4.37;100.00
46876;BME280;32866;50.160;14.768;2023-03-30T03:53:48;99057.56;;;4.40;100.00
46876;BME280;32866;50.160;14.768;2023-03-30T03:56:14;99057.53;;;4.43;100.00
46876;BME280;32866;50.160;14.768;2023-03-30T03:58:39;99054.47;;;4.41;100.00
46876;BME280;32866;50.160;14.768;2023-03-30T04:01:04;99049.06;;;4.38;100.00
46876;BME280;32866;50.160;14.768;2023-03-30T04:03:29;99039.72;;;4.42;100.00
46876;BME280;32866;50.160;14.768;2023-03-30T04:05:58;99039.28;;;4.48;100.00
46876;BME280;32866;50.160;14.768;2023-03-30T04:08:24;99018.66;;;4.54;100.00
46876;BME280;32866;50.160;14.768;2023-03-30T04:10:49;99017.91;;;4.53;100.00
46876;BME280;32866;50.160;14.768;2023-03-30T04:13:14;99019.91;;;4.45;100.00
46876;BME280;32866;50.160;14.768;2023-03-30T04:15:40;99012.22;;;4.40;100.00
46876;BME280;32866;50.160;14.768;2023-03-30T04:18:08;99007.56;;;4.41;100.00
46876;BME280;32866;50.160;14.768;2023-03-30T04:20:33;98995.81;;;4.51;100.00
46876;BME280;32866;50.160;14.768;2023-03-30T04:22:58;98997.41;;;4.49;100.00
46876;BME280;32866;50.160;14.768;2023-03-30T04:25:26;99000.97;;;4.42;100.00
46876;BME280;32866;50.160;14.768;2023-03-30T04:27:51;99001.56;;;4.57;100.00
46876;BME280;32866;50.160;14.768;2023-03-30T04:30:17;99010.81;;;4.63;100.00
46876;BME280;32866;50.160;14.768;2023-03-30T04:32:43;99005.22;;;4.74;100.00
46876;BME280;32866;50.160;14.768;2023-03-30T04:35:09;98999.44;;;4.72;100.00
46876;BME280;32866;50.160;14.768;2023-03-30T04:37:35;98996.69;;;4.75;100.00
46876;BME280;32866;50.160;14.768;2023-03-30T04:40:02;99000.50;;;4.81;100.00
46876;BME280;32866;50.160;14.768;2023-03-30T04:42:31;98995.47;;;4.80;100.00
46876;BME280;32866;50.160;14.768;2023-03-30T04:45:02;98998.94;;;4.80;100.00
46876;BME280;32866;50.160;14.768;2023-03-30T04:47:28;99004.13;;;4.71;100.00
46876;BME280;32866;50.160;14.768;2023-03-30T04:49:53;99006.59;;;4.58;100.00
46876;BME280;32866;50.160;14.768;2023-03-30T04:52:18;99000.06;;;4.52;100.00
46876;BME280;32866;50.160;14.768;2023-03-30T04:54:44;98989.81;;;4.67;100.00
46876;BME280;32866;50.160;14.768;2023-03-30T04:57:09;99000.00;;;4.56;100.00
46876;BME280;32866;50.160;14.768;2023-03-30T04:59:34;98997.09;;;4.43;100.00
46876;BME280;32866;50.160;14.768;2023-03-30T05:02:00;98995.13;;;4.43;100.00
46876;BME280;32866;50.160;14.768;2023-03-30T05:04:27;98994.22;;;4.54;100.00
46876;BME280;32866;50.160;14.768;2023-03-30T05:06:52;98998.59;;;4.44;100.00
46876;BME280;32866;50.160;14.768;2023-03-30T05:09:17;99014.22;;;4.36;100.00
46876;BME280;32866;50.160;14.768;2023-03-30T05:11:42;99015.31;;;4.42;100.00
46876;BME280;32866;50.160;14.768;2023-03-30T05:14:07;98999.69;;;4.50;100.00
46876;BME280;32866;50.160;14.768;2023-03-30T05:16:33;99001.59;;;4.53;100.00
46876;BME280;32866;50.160;14.768;2023-03-30T05:18:58;98994.53;;;4.63;100.00
46876;BME280;32866;50.160;14.768;2023-03-30T05:21:23;98994.59;;;4.56;100.00
46876;BME280;32866;50.160;14.768;2023-03-30T05:23:48;99002.31;;;4.61;100.00
46876;BME280;32866;50.160;14.768;2023-03-30T05:26:13;99006.28;;;4.53;100.00
46876;BME280;32866;50.160;14.768;2023-03-30T05:28:39;99020.16;;;4.58;100.00
46876;BME280;32866;50.160;14.768;2023-03-30T05:31:04;99016.94;;;4.67;100.00
46876;BME280;32866;50.160;14.768;2023-03-30T05:33:29;99026.50;;;4.79;100.00
46876;BME280;32866;50.160;14.768;2023-03-30T05:35:55;99013.81;;;4.69;100.00
46876;BME280;32866;50.160;14.768;2023-03-30T05:38:20;99014.97;;;4.71;100.00
46876;BME280;32866;50.160;14.768;2023-03-30T05:40:46;99027.59;;;4.85;100.00
46876;BME280;32866;50.160;14.768;2023-03-30T05:43:15;99034.59;;;4.82;100.00
46876;BME280;32866;50.160;14.768;2023-03-30T05:45:40;99037.50;;;4.68;100.00
46876;BME280;32866;50.160;14.768;2023-03-30T05:48:07;99038.00;;;4.59;100.00
46876;BME280;32866;50.160;14.768;2023-03-30T05:50:33;99034.69;;;4.75;100.00
46876;BME280;32866;50.160;14.768;2023-03-30T05:52:58;99025.72;;;4.78;100.00
46876;BME280;32866;50.160;14.768;2023-03-30T05:55:23;99034.31;;;5.04;100.00
46876;BME280;32866;50.160;14.768;2023-03-30T05:57:48;99031.97;;;5.06;100.00
46876;BME280;32866;50.160;14.768;2023-03-30T06:00:14;99039.97;;;5.17;100.00
46876;BME280;32866;50.160;14.768;2023-03-30T06:02:40;99028.47;;;5.33;100.00
46876;BME280;32866;50.160;14.768;2023-03-30T06:05:05;99036.41;;;5.98;100.00
46876;BME280;32866;50.160;14.768;2023-03-30T06:07:32;99030.63;;;6.40;100.00
46876;BME280;32866;50.160;14.768;2023-03-30T06:09:57;99027.78;;;6.47;100.00
46876;BME280;32866;50.160;14.768;2023-03-30T06:12:24;99015.53;;;6.55;100.00
46876;BME280;32866;50.160;14.768;2023-03-30T06:14:49;99008.59;;;6.54;100.00
46876;BME280;32866;50.160;14.768;2023-03-30T06:17:14;99017.34;;;6.42;100.00
46876;BME280;32866;50.160;14.768;2023-03-30T06:19:40;99027.56;;;6.78;100.00
46876;BME280;32866;50.160;14.768;2023-03-30T06:22:05;99015.66;;;6.88;100.00
46876;BME280;32866;50.160;14.768;2023-03-30T06:24:30;99024.88;;;6.94;100.00
46876;BME280;32866;50.160;14.768;2023-03-30T06:26:56;99029.63;;;6.90;100.00
46876;BME280;32866;50.160;14.768;2023-03-30T06:29:21;99025.03;;;7.23;100.00
46876;BME280;32866;50.160;14.768;2023-03-30T06:31:47;99025.81;;;7.57;100.00
46876;BME280;32866;50.160;14.768;2023-03-30T06:34:12;99020.97;;;7.65;100.00
46876;BME280;32866;50.160;14.768;2023-03-30T06:36:37;99009.88;;;7.72;100.00
46876;BME280;32866;50.160;14.768;2023-03-30T06:39:02;99007.94;;;7.56;100.00
46876;BME280;32866;50.160;14.768;2023-03-30T06:41:29;99014.84;;;7.44;100.00
46876;BME280;32866;50.160;14.768;2023-03-30T06:43:54;99028.63;;;7.53;100.00
46876;BME280;32866;50.160;14.768;2023-03-30T06:46:20;99029.53;;;7.96;100.00
46876;BME280;32866;50.160;14.768;2023-03-30T06:48:45;99037.00;;;8.25;100.00
46876;BME280;32866;50.160;14.768;2023-03-30T06:51:10;99027.94;;;8.28;100.00
46876;BME280;32866;50.160;14.768;2023-03-30T06:53:37;99030.03;;;8.07;100.00
46876;BME280;32866;50.160;14.768;2023-03-30T06:56:03;99023.06;;;8.06;100.00
46876;BME280;32866;50.160;14.768;2023-03-30T06:58:28;99029.91;;;8.27;100.00
46876;BME280;32866;50.160;14.768;2023-03-30T07:00:54;99034.03;;;8.65;100.00
46876;BME280;32866;50.160;14.768;2023-03-30T07:03:19;99037.13;;;9.18;100.00
46876;BME280;32866;50.160;14.768;2023-03-30T07:05:48;99029.28;;;9.20;100.00
46876;BME280;32866;50.160;14.768;2023-03-30T07:08:13;99029.34;;;8.78;100.00
46876;BME280;32866;50.160;14.768;2023-03-30T07:10:39;99023.75;;;8.69;100.00
46876;BME280;32866;50.160;14.768;2023-03-30T07:13:04;99030.03;;;8.07;100.00
46876;BME280;32866;50.160;14.768;2023-03-30T07:15:31;99033.28;;;8.02;100.00
46876;BME280;32866;50.160;14.768;2023-03-30T07:17:56;99026.00;;;8.58;100.00
46876;BME280;32866;50.160;14.768;2023-03-30T07:20:22;99023.25;;;8.45;100.00
46876;BME280;32866;50.160;14.768;2023-03-30T07:22:47;99017.50;;;8.39;100.00
46876;BME280;32866;50.160;14.768;2023-03-30T07:25:12;99028.63;;;8.32;100.00
46876;BME280;32866;50.160;14.768;2023-03-30T07:27:38;99029.47;;;8.29;100.00
46876;BME280;32866;50.160;14.768;2023-03-30T07:30:05;99023.81;;;8.52;100.00
46876;BME280;32866;50.160;14.768;2023-03-30T07:32:30;99026.44;;;8.98;100.00
46876;BME280;32866;50.160;14.768;2023-03-30T07:34:55;99027.66;;;9.10;100.00
46876;BME280;32866;50.160;14.768;2023-03-30T07:37:21;99031.56;;;9.47;100.00
46876;BME280;32866;50.160;14.768;2023-03-30T07:39:47;99034.00;;;9.45;100.00
46876;BME280;32866;50.160;14.768;2023-03-30T07:42:13;99036.97;;;10.34;100.00
46876;BME280;32866;50.160;14.768;2023-03-30T07:44:38;99030.44;;;11.47;100.00
46876;BME280;32866;50.160;14.768;2023-03-30T07:47:03;99022.34;;;11.94;100.00
46876;BME280;32866;50.160;14.768;2023-03-30T07:49:30;99023.84;;;11.85;100.00
46876;BME280;32866;50.160;14.768;2023-03-30T07:51:56;99023.91;;;11.54;100.00
46876;BME280;32866;50.160;14.768;2023-03-30T07:54:21;99021.00;;;10.76;100.00
46876;BME280;32866;50.160;14.768;2023-03-30T07:56:46;99012.78;;;10.76;100.00
46876;BME280;32866;50.160;14.768;2023-03-30T07:59:17;99011.56;;;10.77;100.00
46876;BME280;32866;50.160;14.768;2023-03-30T08:01:43;99008.06;;;10.33;100.00
46876;BME280;32866;50.160;14.768;2023-03-30T08:04:09;99001.00;;;10.45;100.00
46876;BME280;32866;50.160;14.768;2023-03-30T08:06:41;98987.63;;;10.47;100.00
46876;BME280;32866;50.160;14.768;2023-03-30T08:09:06;98984.31;;;10.52;100.00
46876;BME280;32866;50.160;14.768;2023-03-30T08:11:32;98981.50;;;10.43;100.00
46876;BME280;32866;50.160;14.768;2023-03-30T08:13:59;98976.94;;;10.39;100.00
46876;BME280;32866;50.160;14.768;2023-03-30T08:16:24;98959.25;;;10.18;100.00
46876;BME280;32866;50.160;14.768;2023-03-30T08:18:50;98952.94;;;10.09;100.00
46876;BME280;32866;50.160;14.768;2023-03-30T08:21:18;98943.59;;;10.19;100.00
46876;BME280;32866;50.160;14.768;2023-03-30T08:23:44;98938.69;;;10.14;100.00
46876;BME280;32866;50.160;14.768;2023-03-30T08:26:09;98936.72;;;10.14;100.00
46876;BME280;32866;50.160;14.768;2023-03-30T08:28:34;98917.41;;;10.18;100.00
46876;BME280;32866;50.160;14.768;2023-03-30T08:31:06;98922.59;;;10.16;100.00
46876;BME280;32866;50.160;14.768;2023-03-30T08:33:32;98919.13;;;10.25;100.00
46876;BME280;32866;50.160;14.768;2023-03-30T08:35:58;98917.69;;;10.11;100.00
46876;BME280;32866;50.160;14.768;2023-03-30T08:38:24;98911.94;;;9.96;100.00
46876;BME280;32866;50.160;14.768;2023-03-30T08:40:49;98900.84;;;9.77;100.00
46876;BME280;32866;50.160;14.768;2023-03-30T08:45:59;98908.06;;;9.49;100.00
46876;BME280;32866;50.160;14.768;2023-03-30T08:48:26;98893.81;;;9.54;100.00
46876;BME280;32866;50.160;14.768;2023-03-30T08:50:59;98889.22;;;9.51;100.00
46876;BME280;32866;50.160;14.768;2023-03-30T08:53:28;98889.63;;;9.27;100.00
46876;BME280;32866;50.160;14.768;2023-03-30T09:08:45;98869.38;;;9.25;100.00
46876;BME280;32866;50.160;14.768;2023-03-30T09:11:12;98862.13;;;9.44;100.00
46876;BME280;32866;50.160;14.768;2023-03-30T09:13:39;98863.06;;;9.50;100.00
46876;BME280;32866;50.160;14.768;2023-03-30T09:18:38;98857.94;;;9.52;100.00
46876;BME280;32866;50.160;14.768;2023-03-30T09:21:07;98867.91;;;9.46;100.00
46876;BME280;32866;50.160;14.768;2023-03-30T09:23:33;98873.41;;;9.33;100.00
46876;BME280;32866;50.160;14.768;2023-03-30T09:31:04;98862.13;;;9.44;100.00
46876;BME280;32866;50.160;14.768;2023-03-30T09:38:30;98875.78;;;9.79;100.00
46876;BME280;32866;50.160;14.768;2023-03-30T09:41:01;98872.56;;;9.58;100.00
46876;BME280;32866;50.160;14.768;2023-03-30T09:43:39;98884.06;;;9.53;100.00
46876;BME280;32866;50.160;14.768;2023-03-30T09:46:07;98889.94;;;9.64;100.00
46876;BME280;32866;50.160;14.768;2023-03-30T09:48:36;98906.69;;;9.66;100.00
46876;BME280;32866;50.160;14.768;2023-03-30T09:51:02;98915.78;;;9.63;100.00
46876;BME280;32866;50.160;14.768;2023-03-30T09:53:37;98926.19;;;9.69;100.00
46876;BME280;32866;50.160;14.768;2023-03-30T09:56:24;98921.50;;;9.56;100.00
46876;BME280;32866;50.160;14.768;2023-03-30T09:58:50;98917.47;;;9.48;100.00
46876;BME280;32866;50.160;14.768;2023-03-30T10:01:16;98921.81;;;9.58;100.00
46876;BME280;32866;50.160;14.768;2023-03-30T10:03:43;98909.63;;;9.24;100.00
46876;BME280;32866;50.160;14.768;2023-03-30T10:08:55;98915.72;;;9.41;100.00
46876;BME280;32866;50.160;14.768;2023-03-30T10:11:42;98914.88;;;9.32;100.00
46876;BME280;32866;50.160;14.768;2023-03-30T10:14:10;98917.75;;;9.15;100.00
46876;BME280;32866;50.160;14.768;2023-03-30T10:16:42;98906.91;;;9.12;100.00
46876;BME280;32866;50.160;14.768;2023-03-30T10:19:14;98916.88;;;9.05;100.00
46876;BME280;32866;50.160;14.768;2023-03-30T10:21:41;98916.84;;;9.18;100.00
46876;BME280;32866;50.160;14.768;2023-03-30T10:26:45;98951.88;;;9.23;100.00
46876;BME280;32866;50.160;14.768;2023-03-30T10:29:15;98965.31;;;9.31;100.00
46876;BME280;32866;50.160;14.768;2023-03-30T10:31:47;98974.38;;;9.27;100.00
46876;BME280;32866;50.160;14.768;2023-03-30T10:34:20;98989.91;;;9.31;100.00
46876;BME280;32866;50.160;14.768;2023-03-30T10:36:47;98992.13;;;9.10;100.00
46876;BME280;32866;50.160;14.768;2023-03-30T10:39:21;98999.75;;;9.15;100.00
46876;BME280;32866;50.160;14.768;2023-03-30T10:41:46;98994.72;;;9.01;100.00
46876;BME280;32866;50.160;14.768;2023-03-30T10:44:16;99004.66;;;8.95;100.00
46876;BME280;32866;50.160;14.768;2023-03-30T10:46:41;99000.72;;;8.96;100.00
46876;BME280;32866;50.160;14.768;2023-03-30T10:49:31;99014.16;;;9.03;100.00
46876;BME280;32866;50.160;14.768;2023-03-30T10:57:43;99015.19;;;9.22;100.00
46876;BME280;32866;50.160;14.768;2023-03-30T11:02:52;99033.09;;;8.97;100.00
46876;BME280;32866;50.160;14.768;2023-03-30T11:05:33;99033.53;;;8.96;100.00
46876;BME280;32866;50.160;14.768;2023-03-30T11:10:42;99031.34;;;8.90;100.00
46876;BME280;32866;50.160;14.768;2023-03-30T11:20:44;99002.06;;;9.04;100.00
46876;BME280;32866;50.160;14.768;2023-03-30T11:23:13;98990.34;;;9.16;100.00
46876;BME280;32866;50.160;14.768;2023-03-30T11:25:51;98995.81;;;9.16;100.00
46876;BME280;32866;50.160;14.768;2023-03-30T11:28:20;98981.81;;;9.14;100.00
46876;BME280;32866;50.160;14.768;2023-03-30T11:30:48;98984.34;;;9.08;100.00
46876;BME280;32866;50.160;14.768;2023-03-30T11:35:51;98980.63;;;9.15;100.00
46876;BME280;32866;50.160;14.768;2023-03-30T11:38:18;98979.97;;;9.37;100.00
46876;BME280;32866;50.160;14.768;2023-03-30T11:40:46;98971.22;;;9.29;100.00
46876;BME280;32866;50.160;14.768;2023-03-30T11:43:12;98963.97;;;9.48;100.00
46876;BME280;32866;50.160;14.768;2023-03-30T11:45:40;98962.22;;;9.41;100.00
46876;BME280;32866;50.160;14.768;2023-03-30T11:58:13;98946.34;;;9.49;100.00
46876;BME280;32866;50.160;14.768;2023-03-30T12:05:46;98927.94;;;9.62;100.00
46876;BME280;32866;50.160;14.768;2023-03-30T12:10:56;98908.84;;;9.72;100.00
46876;BME280;32866;50.160;14.768;2023-03-30T12:13:23;98902.00;;;9.89;100.00
46876;BME280;32866;50.160;14.768;2023-03-30T12:15:54;98901.75;;;9.96;100.00
46876;BME280;32866;50.160;14.768;2023-03-30T12:18:25;98913.53;;;10.06;100.00
46876;BME280;32866;50.160;14.768;2023-03-30T12:23:32;98909.50;;;10.42;100.00
46876;BME280;32866;50.160;14.768;2023-03-30T12:28:39;98905.94;;;10.54;100.00
46876;BME280;32866;50.160;14.768;2023-03-30T12:31:07;98887.91;;;10.75;100.00
46876;BME280;32866;50.160;14.768;2023-03-30T12:33:33;98885.88;;;11.07;100.00
46876;BME280;32866;50.160;14.768;2023-03-30T12:36:00;98895.69;;;11.36;100.00
46876;BME280;32866;50.160;14.768;2023-03-30T12:38:27;98888.84;;;11.50;100.00
46876;BME280;32866;50.160;14.768;2023-03-30T12:41:03;98887.50;;;11.64;100.00
46876;BME280;32866;50.160;14.768;2023-03-30T12:43:32;98863.53;;;11.83;100.00
46876;BME280;32866;50.160;14.768;2023-03-30T12:46:25;98866.16;;;11.86;100.00
46876;BME280;32866;50.160;14.768;2023-03-30T12:54:24;98843.91;;;12.46;100.00
46876;BME280;32866;50.160;14.768;2023-03-30T13:05:16;98817.00;;;12.83;100.00
46876;BME280;32866;50.160;14.768;2023-03-30T13:07:41;98797.22;;;13.18;100.00
46876;BME280;32866;50.160;14.768;2023-03-30T13:12:51;98806.06;;;14.21;100.00
46876;BME280;32866;50.160;14.768;2023-03-30T13:20:19;98777.78;;;13.61;100.00
46876;BME280;32866;50.160;14.768;2023-03-30T13:22:52;98773.31;;;14.23;100.00
46876;BME280;32866;50.160;14.768;2023-03-30T13:25:29;98756.81;;;14.43;100.00
46876;BME280;32866;50.160;14.768;2023-03-30T13:28:06;98749.56;;;14.61;100.00
46876;BME280;32866;50.160;14.768;2023-03-30T13:30:46;98751.94;;;14.53;100.00
46876;BME280;32866;50.160;14.768;2023-03-30T13:33:16;98760.03;;;14.06;100.00
46876;BME280;32866;50.160;14.768;2023-03-30T13:36:04;98754.13;;;13.54;100.00
46876;BME280;32866;50.160;14.768;2023-03-30T13:46:13;98736.56;;;13.36;100.00
46876;BME280;32866;50.160;14.768;2023-03-30T13:51:11;98724.44;;;13.58;100.00
46876;BME280;32866;50.160;14.768;2023-03-30T13:53:40;98720.06;;;13.96;100.00
46876;BME280;32866;50.160;14.768;2023-03-30T13:56:08;98717.31;;;14.32;100.00
46876;BME280;32866;50.160;14.768;2023-03-30T13:58:34;98726.50;;;14.43;100.00
46876;BME280;32866;50.160;14.768;2023-03-30T14:01:03;98739.91;;;14.36;100.00
46876;BME280;32866;50.160;14.768;2023-03-30T14:06:39;98726.91;;;13.56;100.00
46876;BME280;32866;50.160;14.768;2023-03-30T14:08:45;98706.13;;;13.40;100.00
46876;BME280;32866;50.160;14.768;2023-03-30T14:11:21;98703.75;;;13.48;100.00
46876;BME280;32866;50.160;14.768;2023-03-30T14:13:48;98700.53;;;13.64;100.00
46876;BME280;32866;50.160;14.768;2023-03-30T14:16:20;98704.03;;;13.50;100.00
46876;BME280;32866;50.160;14.768;2023-03-30T14:18:46;98709.69;;;13.31;100.00
46876;BME280;32866;50.160;14.768;2023-03-30T14:21:16;98714.41;;;13.16;100.00
46876;BME280;32866;50.160;14.768;2023-03-30T14:23:44;98711.91;;;13.03;100.00
46876;BME280;32866;50.160;14.768;2023-03-30T14:26:20;98691.28;;;12.84;100.00
46876;BME280;32866;50.160;14.768;2023-03-30T14:28:47;98697.97;;;12.68;100.00
46876;BME280;32866;50.160;14.768;2023-03-30T14:31:16;98705.88;;;12.75;100.00
46876;BME280;32866;50.160;14.768;2023-03-30T14:33:43;98701.94;;;12.67;100.00
46876;BME280;32866;50.160;14.768;2023-03-30T14:36:08;98703.59;;;12.73;100.00
46876;BME280;32866;50.160;14.768;2023-03-30T14:38:39;98691.25;;;12.69;100.00
46876;BME280;32866;50.160;14.768;2023-03-30T14:41:15;98688.84;;;12.61;100.00
46876;BME280;32866;50.160;14.768;2023-03-30T14:43:44;98691.97;;;12.54;100.00
46876;BME280;32866;50.160;14.768;2023-03-30T14:46:11;98681.53;;;12.58;100.00
46876;BME280;32866;50.160;14.768;2023-03-30T14:48:38;98678.50;;;12.56;100.00
46876;BME280;32866;50.160;14.768;2023-03-30T14:51:06;98684.19;;;12.53;100.00
46876;BME280;32866;50.160;14.768;2023-03-30T14:53:33;98685.91;;;12.50;100.00
46876;BME280;32866;50.160;14.768;2023-03-30T14:55:59;98674.13;;;12.50;100.00
46876;BME280;32866;50.160;14.768;2023-03-30T14:58:26;98672.16;;;12.50;100.00
46876;BME280;32866;50.160;14.768;2023-03-30T15:00:55;98670.34;;;12.47;100.00
46876;BME280;32866;50.160;14.768;2023-03-30T15:03:22;98667.88;;;12.49;100.00
46876;BME280;32866;50.160;14.768;2023-03-30T15:05:48;98648.81;;;12.46;100.00
46876;BME280;32866;50.160;14.768;2023-03-30T15:08:20;98655.94;;;12.52;100.00
46876;BME280;32866;50.160;14.768;2023-03-30T15:10:52;98671.50;;;12.55;100.00
46876;BME280;32866;50.160;14.768;2023-03-30T15:13:35;98672.19;;;12.65;100.00
46876;BME280;32866;50.160;14.768;2023-03-30T15:16:02;98673.06;;;12.71;100.00
46876;BME280;32866;50.160;14.768;2023-03-30T15:18:28;98669.78;;;12.82;100.00
46876;BME280;32866;50.160;14.768;2023-03-30T15:20:54;98676.78;;;12.83;100.00
46876;BME280;32866;50.160;14.768;2023-03-30T15:23:20;98677.19;;;12.91;100.00